createdAt,value
2018-02-04T00:00:47.883Z,100797.55
2018-02-04T00:03:16.676Z,100786.40
2018-02-04T00:05:46.426Z,100794.98
2018-02-04T00:08:15.814Z,100791.62
2018-02-04T00:10:46.212Z,100799.82
2018-02-04T00:13:16.431Z,100804.89
2018-02-04T00:15:46.998Z,100802.80
2018-02-04T00:18:15.542Z,100806.56
2018-02-04T00:20:45.509Z,100813.24
2018-02-04T00:23:17.163Z,100813.22
2018-02-04T00:25:55.485Z,100818.31
2018-02-04T00:28:24.623Z,100817.23
2018-02-04T00:30:57.953Z,100824.73
2018-02-04T00:33:27.166Z,100838.97
2018-02-04T00:35:56.735Z,100840.28
2018-02-04T00:38:25.611Z,100843.16
2018-02-04T00:40:55.497Z,100848.25
2018-02-04T00:43:25.587Z,100855.47
2018-02-04T00:45:55.251Z,100856.53
2018-02-04T00:48:24.575Z,100860.45
2018-02-04T00:50:53.325Z,100861.39
2018-02-04T00:53:21.843Z,100874.34
2018-02-04T00:55:50.663Z,100872.50
2018-02-04T00:58:19.750Z,100871.17
2018-02-04T01:00:48.274Z,100878.73
2018-02-04T01:03:16.862Z,100881.42
2018-02-04T01:05:45.749Z,100872.93
2018-02-04T01:08:14.218Z,100877.20
2018-02-04T01:10:42.657Z,100877.14
2018-02-04T01:13:11.506Z,100884.76
2018-02-04T01:15:40.937Z,100894.05
2018-02-04T01:18:10.186Z,100899.05
2018-02-04T01:20:38.715Z,100899.42
2018-02-04T01:23:08.278Z,100900.18
2018-02-04T01:25:36.739Z,100900.80
2018-02-04T01:28:05.219Z,100911.95
2018-02-04T01:30:33.718Z,100916.25
2018-02-04T01:33:02.138Z,100916.25
2018-02-04T01:35:30.698Z,100924.70
2018-02-04T01:38:03.669Z,100919.50
2018-02-04T01:40:33.206Z,100932.73
2018-02-04T01:43:01.775Z,100927.61
2018-02-04T01:45:32.404Z,100934.41
2018-02-04T01:48:08.773Z,100942.48
2018-02-04T01:50:37.217Z,100946.28
2018-02-04T01:53:05.634Z,100951.02
2018-02-04T01:55:35.305Z,100956.98
2018-02-04T01:58:03.780Z,100960.20
2018-02-04T02:00:32.219Z,100967.25
2018-02-04T02:03:01.119Z,100972.42
2018-02-04T02:05:29.842Z,100974.44
2018-02-04T02:07:59.962Z,100975.87
2018-02-04T02:10:28.785Z,100980.64
2018-02-04T02:12:57.396Z,100989.40
2018-02-04T02:15:25.914Z,100989.78
2018-02-04T02:17:54.426Z,100995.34
2018-02-04T02:20:22.974Z,101001.23
2018-02-04T02:22:51.556Z,101000.39
2018-02-04T02:25:20.702Z,101013.03
2018-02-04T02:27:49.149Z,101019.77
2018-02-04T02:30:17.578Z,101016.16
2018-02-04T02:32:46.062Z,101023.97
2018-02-04T02:35:14.514Z,101031.90
2018-02-04T02:37:42.920Z,101037.43
2018-02-04T02:40:11.468Z,101047.98
2018-02-04T02:42:39.928Z,101045.74
2018-02-04T02:45:08.426Z,101054.88
2018-02-04T02:47:36.990Z,101059.50
2018-02-04T02:50:11.212Z,101066.06
2018-02-04T02:52:39.867Z,101067.45
2018-02-04T02:55:08.355Z,101073.41
2018-02-04T02:57:36.842Z,101082.45
2018-02-04T03:00:05.323Z,101077.23
2018-02-04T03:02:33.832Z,101083.28
2018-02-04T03:05:03.366Z,101090.70
2018-02-04T03:07:32.087Z,101109.62
2018-02-04T03:10:00.482Z,101102.69
2018-02-04T03:12:28.931Z,101108.18
2018-02-04T03:14:58.269Z,101108.90
2018-02-04T03:17:26.750Z,101114.42
2018-02-04T03:19:55.528Z,101137.38
2018-02-04T03:22:24.282Z,101126.47
2018-02-04T03:24:52.930Z,101138.97
2018-02-04T03:27:21.458Z,101147.00
2018-02-04T03:29:50.994Z,101153.83
2018-02-04T03:32:19.616Z,101157.70
2018-02-04T03:34:48.064Z,101169.88
2018-02-04T03:37:17.240Z,101173.84
2018-02-04T03:39:45.672Z,101187.62
2018-02-04T03:42:14.216Z,101197.55
2018-02-04T03:44:42.940Z,101209.29
2018-02-04T03:47:11.398Z,101210.33
2018-02-04T03:49:39.833Z,101216.00
2018-02-04T03:52:08.473Z,101217.50
2018-02-04T03:54:36.917Z,101220.95
2018-02-04T03:57:05.345Z,101221.84
2018-02-04T03:59:33.861Z,101231.33
2018-02-04T04:02:02.291Z,101233.94
2018-02-04T04:04:30.703Z,101235.03
2018-02-04T04:06:59.457Z,101241.25
2018-02-04T04:09:27.885Z,101254.34
2018-02-04T04:11:56.364Z,101251.63
2018-02-04T04:14:25.018Z,101258.99
2018-02-04T04:16:53.534Z,101267.58
2018-02-04T04:19:22.217Z,101272.78
2018-02-04T04:21:50.905Z,101277.93
2018-02-04T04:24:19.344Z,101288.31
2018-02-04T04:26:47.804Z,101294.94
2018-02-04T04:29:16.512Z,101293.33
2018-02-04T04:31:44.986Z,101291.95
2018-02-04T04:34:13.393Z,101299.33
2018-02-04T04:36:41.869Z,101311.67
2018-02-04T04:39:10.330Z,101306.45
2018-02-04T04:41:38.762Z,101313.03
2018-02-04T04:44:07.822Z,101318.63
2018-02-04T04:46:36.510Z,101320.22
2018-02-04T04:49:04.930Z,101323.91
2018-02-04T04:51:51.410Z,101329.78
2018-02-04T04:54:19.824Z,101318.70
2018-02-04T04:56:48.274Z,101335.00
2018-02-04T04:59:18.073Z,101345.22
2018-02-04T05:01:46.498Z,101348.64
2018-02-04T05:04:14.954Z,101350.03
2018-02-04T05:06:43.539Z,101354.33
2018-02-04T05:09:11.929Z,101355.67
2018-02-04T05:11:40.366Z,101364.78
2018-02-04T05:14:08.833Z,101370.13
2018-02-04T05:16:38.147Z,101375.13
2018-02-04T05:19:06.558Z,101377.13
2018-02-04T05:21:35.033Z,101374.77
2018-02-04T05:24:04.187Z,101382.23
2018-02-04T05:26:32.716Z,101390.09
2018-02-04T05:29:01.837Z,101398.91
2018-02-04T05:31:30.345Z,101399.58
2018-02-04T05:33:58.784Z,101405.63
2018-02-04T05:36:27.456Z,101411.94
2018-02-04T05:38:55.941Z,101412.33
2018-02-04T05:41:24.416Z,101418.20
2018-02-04T05:43:52.925Z,101427.80
2018-02-04T05:46:21.508Z,101433.73
2018-02-04T05:48:50.161Z,101430.17
2018-02-04T05:51:19.789Z,101432.57
2018-02-04T05:53:48.254Z,101443.94
2018-02-04T05:56:16.696Z,101449.64
2018-02-04T05:58:45.655Z,101452.13
2018-02-04T06:01:14.105Z,101461.83
2018-02-04T06:03:42.558Z,101469.20
2018-02-04T06:06:11.020Z,101479.00
2018-02-04T06:08:39.454Z,101488.78
2018-02-04T06:11:07.885Z,101485.91
2018-02-04T06:13:36.379Z,101486.55
2018-02-04T06:16:04.807Z,101498.02
2018-02-04T06:18:33.247Z,101499.06
2018-02-04T06:21:01.774Z,101507.04
2018-02-04T06:23:30.402Z,101520.70
2018-02-04T06:25:58.917Z,101520.27
2018-02-04T06:28:28.079Z,101522.41
2018-02-04T06:30:56.663Z,101524.59
2018-02-04T06:33:25.134Z,101529.39
2018-02-04T06:35:53.625Z,101537.19
2018-02-04T06:38:22.137Z,101534.09
2018-02-04T06:40:50.758Z,101542.35
2018-02-04T06:43:19.341Z,101543.59
2018-02-04T06:45:47.822Z,101555.83
2018-02-04T06:48:16.264Z,101563.97
2018-02-04T06:50:45.606Z,101560.48
2018-02-04T06:53:14.149Z,101563.95
2018-02-04T06:55:42.593Z,101567.81
2018-02-04T06:58:12.085Z,101579.34
2018-02-04T07:00:40.588Z,101580.94
2018-02-04T07:03:08.980Z,101587.90
2018-02-04T07:05:37.767Z,101598.45
2018-02-04T07:08:06.252Z,101597.45
2018-02-04T07:10:34.732Z,101604.81
2018-02-04T07:13:03.283Z,101613.51
2018-02-04T07:15:31.710Z,101608.84
2018-02-04T07:18:00.313Z,101618.41
2018-02-04T07:20:29.639Z,101621.16
2018-02-04T07:22:58.259Z,101618.92
2018-02-04T07:25:26.917Z,101628.72
2018-02-04T07:27:55.407Z,101622.48
2018-02-04T07:30:24.037Z,101629.86
2018-02-04T07:32:52.550Z,101638.20
2018-02-04T07:35:21.500Z,101640.23
2018-02-04T07:37:50.077Z,101645.62
2018-02-04T07:40:22.055Z,101649.16
2018-02-04T07:42:50.796Z,101650.55
2018-02-04T07:45:19.685Z,101646.64
2018-02-04T07:47:48.109Z,101655.55
2018-02-04T07:50:17.365Z,101657.50
2018-02-04T07:52:45.822Z,101659.40
2018-02-04T07:55:14.869Z,101674.80
2018-02-04T07:57:43.582Z,101681.00
2018-02-04T08:00:12.071Z,101683.14
2018-02-04T08:02:40.493Z,101685.31
2018-02-04T08:05:10.057Z,101690.16
2018-02-04T08:07:38.950Z,101689.71
2018-02-04T08:10:07.474Z,101701.55
2018-02-04T08:12:36.173Z,101704.23
2018-02-04T08:15:04.612Z,101696.78
2018-02-04T08:17:33.022Z,101708.67
2018-02-04T08:20:01.616Z,101707.40
2018-02-04T08:22:30.125Z,101706.52
2018-02-04T08:24:58.564Z,101705.56
2018-02-04T08:27:27.403Z,101715.52
2018-02-04T08:29:55.933Z,101711.89
2018-02-04T08:32:24.410Z,101715.34
2018-02-04T08:34:53.197Z,101731.89
2018-02-04T08:37:21.718Z,101733.99
2018-02-04T08:39:50.617Z,101737.91
2018-02-04T08:42:19.097Z,101735.84
2018-02-04T08:44:47.554Z,101746.81
2018-02-04T08:47:15.997Z,101747.23
2018-02-04T08:49:45.258Z,101748.31
2018-02-04T08:52:13.673Z,101766.23
2018-02-04T08:54:42.086Z,101771.25
2018-02-04T08:57:10.562Z,101765.62
2018-02-04T08:59:38.979Z,101778.81
2018-02-04T09:02:07.398Z,101783.23
2018-02-04T09:04:36.117Z,101781.87
2018-02-04T09:07:04.571Z,101788.45
2018-02-04T09:09:33.030Z,101801.16
2018-02-04T09:12:01.825Z,101804.30
2018-02-04T09:14:30.279Z,101816.14
2018-02-04T09:16:58.780Z,101825.39
2018-02-04T09:19:28.067Z,101819.22
2018-02-04T09:21:56.534Z,101833.33
2018-02-04T09:24:25.024Z,101825.08
2018-02-04T09:26:53.536Z,101829.52
2018-02-04T09:29:22.214Z,101842.64
2018-02-04T09:31:50.669Z,101844.48
2018-02-04T09:34:19.145Z,101845.77
2018-02-04T09:36:47.611Z,101855.04
2018-02-04T09:39:16.033Z,101858.49
2018-02-04T09:41:44.513Z,101869.88
2018-02-04T09:44:12.960Z,101876.91
2018-02-04T09:46:41.399Z,101878.64
2018-02-04T09:49:09.906Z,101878.14
2018-02-04T09:51:38.373Z,101882.03
2018-02-04T09:54:06.867Z,101891.70
2018-02-04T09:56:36.321Z,101892.11
2018-02-04T09:59:04.750Z,101899.05
2018-02-04T10:01:33.209Z,101916.66
2018-02-04T10:04:01.762Z,101913.72
2018-02-04T10:06:30.323Z,101914.15
2018-02-04T10:08:58.869Z,101919.38
2018-02-04T10:11:27.676Z,101923.27
2018-02-04T10:13:56.552Z,101924.05
2018-02-04T10:16:25.050Z,101939.75
2018-02-04T10:18:53.863Z,101936.62
2018-02-04T10:21:22.492Z,101934.82
2018-02-04T10:23:51.217Z,101944.88
2018-02-04T10:26:19.867Z,101939.64
2018-02-04T10:28:48.431Z,101954.61
2018-02-04T10:31:16.932Z,101951.20
2018-02-04T10:33:46.957Z,101956.95
2018-02-04T10:36:15.461Z,101967.45
2018-02-04T10:38:45.037Z,101966.22
2018-02-04T10:41:13.687Z,101971.88
2018-02-04T10:43:42.170Z,101972.78
2018-02-04T10:46:10.737Z,101965.41
2018-02-04T10:48:40.124Z,101975.46
2018-02-04T10:51:14.018Z,101988.64
2018-02-04T10:53:42.553Z,101979.39
2018-02-04T10:56:11.027Z,101986.42
2018-02-04T10:58:39.458Z,101989.92
2018-02-04T11:01:08.427Z,101997.81
2018-02-04T11:03:36.981Z,101993.84
2018-02-04T11:06:05.856Z,102000.84
2018-02-04T11:08:35.695Z,102003.92
2018-02-04T11:11:04.139Z,102020.14
2018-02-04T11:13:32.674Z,102019.19
2018-02-04T11:16:02.075Z,102019.64
2018-02-04T11:18:30.773Z,102018.30
2018-02-04T11:20:59.358Z,102024.02
2018-02-04T11:23:28.239Z,102032.34
2018-02-04T11:25:56.915Z,102037.19
2018-02-04T11:28:25.406Z,102037.67
2018-02-04T11:30:54.096Z,102037.67
2018-02-04T11:33:23.056Z,102038.08
2018-02-04T11:35:51.803Z,102045.53
2018-02-04T11:38:20.467Z,102047.66
2018-02-04T11:40:49.021Z,102039.27
2018-02-04T11:43:17.475Z,102036.14
2018-02-04T11:45:45.929Z,102046.21
2018-02-04T11:48:14.359Z,102043.53
2018-02-04T11:50:42.899Z,102049.64
2018-02-04T11:53:11.472Z,102057.03
2018-02-04T11:55:39.984Z,102057.89
2018-02-04T11:58:08.422Z,102057.03
2018-02-04T12:00:37.271Z,102057.11
2018-02-04T12:03:05.753Z,102066.73
2018-02-04T12:05:34.419Z,102076.42
2018-02-04T12:08:02.918Z,102075.15
2018-02-04T12:10:31.374Z,102075.99
2018-02-04T12:12:59.874Z,102087.80
2018-02-04T12:15:28.621Z,102084.25
2018-02-04T12:17:57.104Z,102084.25
2018-02-04T12:20:25.688Z,102091.69
2018-02-04T12:22:56.058Z,102093.55
2018-02-04T12:25:24.749Z,102100.17
2018-02-04T12:27:53.378Z,102095.34
2018-02-04T12:30:23.763Z,102097.95
2018-02-04T12:32:52.458Z,102111.53
2018-02-04T12:35:21.741Z,102104.13
2018-02-04T12:37:50.960Z,102111.05
2018-02-04T12:40:20.085Z,102118.54
2018-02-04T12:42:48.607Z,102119.48
2018-02-04T12:45:17.630Z,102112.50
2018-02-04T12:47:47.312Z,102115.09
2018-02-04T12:50:15.749Z,102118.17
2018-02-04T12:52:45.816Z,102118.19
2018-02-04T12:55:14.287Z,102126.52
2018-02-04T12:57:42.813Z,102129.13
2018-02-04T13:00:11.344Z,102126.45
2018-02-04T13:02:39.865Z,102126.85
2018-02-04T13:05:08.430Z,102132.06
2018-02-04T13:07:38.185Z,102135.05
2018-02-04T13:10:06.700Z,102140.73
2018-02-04T13:12:35.279Z,102138.91
2018-02-04T13:15:08.266Z,102138.88
2018-02-04T13:17:37.085Z,102151.41
2018-02-04T13:20:05.660Z,102141.66
2018-02-04T13:22:35.956Z,102151.86
2018-02-04T13:25:04.452Z,102166.31
2018-02-04T13:27:32.866Z,102168.54
2018-02-04T13:30:01.580Z,102164.20
2018-02-04T13:32:31.368Z,102172.97
2018-02-04T13:34:59.949Z,102171.21
2018-02-04T13:37:29.231Z,102170.75
2018-02-04T13:39:58.198Z,102172.84
2018-02-04T13:42:27.188Z,102176.78
2018-02-04T13:44:55.874Z,102178.95
2018-02-04T13:47:24.559Z,102185.06
2018-02-04T13:49:53.140Z,102184.11
2018-02-04T13:52:22.573Z,102192.52
2018-02-04T13:54:51.250Z,102191.65
2018-02-04T13:57:19.761Z,102205.64
2018-02-04T13:59:49.374Z,102202.17
2018-02-04T14:02:17.893Z,102210.87
2018-02-04T14:04:46.446Z,102206.14
2018-02-04T14:07:16.024Z,102229.39
2018-02-04T14:09:44.609Z,102232.41
2018-02-04T14:12:13.140Z,102234.14
2018-02-04T14:14:41.734Z,102238.56
2018-02-04T14:17:10.231Z,102241.59
2018-02-04T14:19:38.847Z,102243.40
2018-02-04T14:22:07.505Z,102239.04
2018-02-04T14:24:35.951Z,102249.12
2018-02-04T14:27:04.431Z,102239.94
2018-02-04T14:29:33.630Z,102248.77
2018-02-04T14:32:02.056Z,102255.24
2018-02-04T14:34:30.493Z,102254.34
2018-02-04T14:36:59.385Z,102252.48
2018-02-04T14:39:28.502Z,102262.11
2018-02-04T14:41:56.974Z,102256.98
2018-02-04T14:44:27.074Z,102266.69
2018-02-04T14:46:55.690Z,102260.95
2018-02-04T14:49:24.192Z,102269.28
2018-02-04T14:51:52.729Z,102274.91
2018-02-04T14:54:21.311Z,102281.06
2018-02-04T14:56:49.792Z,102277.56
2018-02-04T14:59:18.295Z,102289.89
2018-02-04T15:01:46.747Z,102288.16
2018-02-04T15:04:15.353Z,102288.50
2018-02-04T15:06:49.265Z,102299.45
2018-02-04T15:09:17.717Z,102295.44
2018-02-04T15:11:46.199Z,102298.93
2018-02-04T15:14:14.816Z,102303.75
2018-02-04T15:16:43.728Z,102298.94
2018-02-04T15:19:12.183Z,102300.30
2018-02-04T15:21:40.690Z,102308.60
2018-02-04T15:24:09.319Z,102303.36
2018-02-04T15:26:40.788Z,102308.17
2018-02-04T15:29:10.394Z,102321.77
2018-02-04T15:31:40.091Z,102316.48
2018-02-04T15:34:08.550Z,102321.33
2018-02-04T15:36:38.090Z,102329.61
2018-02-04T15:39:06.773Z,102327.83
2018-02-04T15:41:35.343Z,102330.98
2018-02-04T15:44:06.400Z,102336.27
2018-02-04T15:46:34.878Z,102340.65
2018-02-04T15:49:03.325Z,102339.77
2018-02-04T15:51:31.932Z,102343.70
2018-02-04T15:54:00.423Z,102346.28
2018-02-04T15:56:29.006Z,102351.09
2018-02-04T15:58:57.676Z,102356.30
2018-02-04T16:01:26.381Z,102359.40
2018-02-04T16:03:54.928Z,102356.78
2018-02-04T16:06:24.157Z,102366.44
2018-02-04T16:08:53.119Z,102367.34
2018-02-04T16:11:22.419Z,102370.82
2018-02-04T16:13:51.208Z,102381.83
2018-02-04T16:16:19.609Z,102391.03
2018-02-04T16:18:48.066Z,102385.77
2018-02-04T16:21:17.314Z,102392.78
2018-02-04T16:23:45.739Z,102402.50
2018-02-04T16:26:14.176Z,102407.25
2018-02-04T16:28:43.033Z,102413.36
2018-02-04T16:31:11.492Z,102420.02
2018-02-04T16:33:40.732Z,102419.50
2018-02-04T16:36:09.889Z,102421.23
2018-02-04T16:38:38.340Z,102431.79
2018-02-04T16:41:07.766Z,102426.95
2018-02-04T16:43:36.991Z,102431.31
2018-02-04T16:46:05.402Z,102439.64
2018-02-04T16:48:33.886Z,102437.91
2018-02-04T16:51:02.617Z,102441.44
2018-02-04T16:53:32.329Z,102449.27
2018-02-04T16:56:00.959Z,102457.56
2018-02-04T16:58:29.688Z,102464.59
2018-02-04T17:00:58.231Z,102463.72
2018-02-04T17:03:26.776Z,102470.34
2018-02-04T17:05:58.847Z,102472.07
2018-02-04T17:08:27.304Z,102477.81
2018-02-04T17:10:55.925Z,102478.30
2018-02-04T17:13:25.111Z,102477.77
2018-02-04T17:15:53.718Z,102484.87
2018-02-04T17:18:22.283Z,102494.55
2018-02-04T17:20:52.021Z,102492.80
2018-02-04T17:23:20.607Z,102491.08
2018-02-04T17:25:49.073Z,102491.47
2018-02-04T17:28:18.251Z,102498.13
2018-02-04T17:30:46.716Z,102503.77
2018-02-04T17:33:15.183Z,102508.61
2018-02-04T17:35:45.114Z,102516.88
2018-02-04T17:38:13.599Z,102523.48
2018-02-04T17:40:42.022Z,102523.08
2018-02-04T17:43:11.451Z,102525.32
2018-02-04T17:45:40.152Z,102525.26
2018-02-04T17:48:08.615Z,102530.98
2018-02-04T17:50:37.965Z,102539.35
2018-02-04T17:53:06.477Z,102536.73
2018-02-04T17:55:34.933Z,102535.81
2018-02-04T17:58:03.640Z,102538.85
2018-02-04T18:00:32.777Z,102541.55
2018-02-04T18:03:02.221Z,102544.61
2018-02-04T18:05:32.305Z,102543.34
2018-02-04T18:08:00.995Z,102545.08
2018-02-04T18:10:29.582Z,102549.45
2018-02-04T18:12:58.906Z,102559.15
2018-02-04T18:15:27.460Z,102556.53
2018-02-04T18:17:55.951Z,102561.80
2018-02-04T18:20:24.847Z,102567.55
2018-02-04T18:22:53.424Z,102573.25
2018-02-04T18:25:22.050Z,102582.89
2018-02-04T18:27:51.611Z,102581.17
2018-02-04T18:30:20.689Z,102581.59
2018-02-04T18:32:49.157Z,102586.89
2018-02-04T18:35:17.988Z,102594.73
2018-02-04T18:37:46.503Z,102589.05
2018-02-04T18:40:14.925Z,102598.67
2018-02-04T18:42:43.444Z,102591.66
2018-02-04T18:45:11.894Z,102592.53
2018-02-04T18:47:40.373Z,102590.32
2018-02-04T18:50:09.270Z,102597.79
2018-02-04T18:52:37.747Z,102598.22
2018-02-04T18:55:06.204Z,102598.22
2018-02-04T18:57:35.132Z,102603.50
2018-02-04T19:00:03.609Z,102602.61
2018-02-04T19:02:32.245Z,102613.14
2018-02-04T19:05:00.966Z,102611.34
2018-02-04T19:07:29.732Z,102618.84
2018-02-04T19:09:58.341Z,102624.58
2018-02-04T19:12:27.017Z,102624.12
2018-02-04T19:14:55.594Z,102635.12
2018-02-04T19:17:24.228Z,102642.12
2018-02-04T19:19:53.536Z,102638.61
2018-02-04T19:22:22.528Z,102648.70
2018-02-04T19:24:51.123Z,102654.41
2018-02-04T19:27:19.737Z,102643.41
2018-02-04T19:29:48.192Z,102653.51
2018-02-04T19:32:16.626Z,102655.25
2018-02-04T19:34:45.869Z,102649.99
2018-02-04T19:37:14.329Z,102645.58
2018-02-04T19:39:43.932Z,102654.38
2018-02-04T19:42:12.791Z,102661.38
2018-02-04T19:44:41.270Z,102668.02
2018-02-04T19:47:09.708Z,102674.57
2018-02-04T19:49:38.768Z,102677.63
2018-02-04T19:52:07.185Z,102675.42
2018-02-04T19:54:35.662Z,102686.38
2018-02-04T19:57:04.473Z,102683.33
2018-02-04T19:59:33.458Z,102682.03
2018-02-04T20:02:02.043Z,102688.18
2018-02-04T20:04:31.077Z,102687.73
2018-02-04T20:06:59.683Z,102684.23
2018-02-04T20:09:28.982Z,102685.55
2018-02-04T20:11:58.107Z,102687.73
2018-02-04T20:14:26.640Z,102687.30
2018-02-04T20:16:55.179Z,102700.05
2018-02-04T20:19:24.010Z,102707.48
2018-02-04T20:21:52.535Z,102710.12
2018-02-04T20:24:21.229Z,102706.17
2018-02-04T20:26:52.951Z,102701.34
2018-02-04T20:29:21.540Z,102712.30
2018-02-04T20:31:50.106Z,102706.59
2018-02-04T20:34:31.071Z,102715.83
2018-02-04T20:36:59.659Z,102710.12
2018-02-04T20:39:28.234Z,102716.72
2018-02-04T20:41:56.927Z,102710.55
2018-02-04T20:44:25.764Z,102721.52
2018-02-04T20:46:54.338Z,102721.08
2018-02-04T20:49:23.041Z,102707.94
2018-02-04T20:51:51.735Z,102719.34
2018-02-04T20:54:20.350Z,102716.27
2018-02-04T20:56:49.076Z,102726.80
2018-02-04T20:59:17.511Z,102726.36
2018-02-04T21:01:45.994Z,102732.50
2018-02-04T21:04:14.801Z,102732.06
2018-02-04T21:06:43.262Z,102735.14
2018-02-04T21:09:11.712Z,102735.17
2018-02-04T21:11:40.231Z,102743.48
2018-02-04T21:14:08.738Z,102742.19
2018-02-04T21:16:37.162Z,102748.34
2018-02-04T21:19:05.667Z,102746.13
2018-02-04T21:21:34.348Z,102751.84
2018-02-04T21:24:02.817Z,102746.13
2018-02-04T21:26:32.302Z,102755.34
2018-02-04T21:29:00.864Z,102758.83
2018-02-04T21:31:30.701Z,102764.12
2018-02-04T21:33:59.289Z,102770.70
2018-02-04T21:36:28.555Z,102777.71
2018-02-04T21:38:57.117Z,102779.03
2018-02-04T21:41:26.163Z,102777.27
2018-02-04T21:43:54.937Z,102765.41
2018-02-04T21:46:23.613Z,102778.61
2018-02-04T21:48:52.286Z,102777.71
2018-02-04T21:51:20.943Z,102773.31
2018-02-04T21:53:49.413Z,102780.34
2018-02-04T21:56:17.938Z,102780.35
2018-02-04T21:58:46.390Z,102779.91
2018-02-04T22:01:14.854Z,102787.37
2018-02-04T22:03:43.376Z,102785.61
2018-02-04T22:06:11.830Z,102786.48
2018-02-04T22:08:40.289Z,102790.87
2018-02-04T22:11:08.862Z,102794.39
2018-02-04T22:13:38.973Z,102790.01
2018-02-04T22:16:07.606Z,102796.57
2018-02-04T22:18:36.516Z,102794.39
2018-02-04T22:21:05.117Z,102795.25
2018-02-04T22:23:33.521Z,102805.34
2018-02-04T22:26:02.517Z,102810.59
2018-02-04T22:28:31.908Z,102806.66
2018-02-04T22:31:00.420Z,102811.50
2018-02-04T22:33:29.852Z,102809.74
2018-02-04T22:35:58.435Z,102809.31
2018-02-04T22:38:27.268Z,102822.92
2018-02-04T22:40:56.717Z,102815.45
2018-02-04T22:43:25.720Z,102822.91
2018-02-04T22:45:54.273Z,102823.34
2018-02-04T22:48:23.656Z,102826.43
2018-02-04T22:50:52.230Z,102825.10
2018-02-04T22:53:20.869Z,102827.75
2018-02-04T22:55:49.783Z,102823.33
2018-02-04T22:58:18.284Z,102835.21
2018-02-04T23:00:47.947Z,102830.37
2018-02-04T23:03:17.367Z,102827.75
2018-02-04T23:05:45.843Z,102820.72
2018-02-04T23:08:14.516Z,102829.95
2018-02-04T23:10:42.981Z,102826.41
2018-02-04T23:13:11.556Z,102830.36
2018-02-04T23:15:40.074Z,102831.25
2018-02-04T23:18:08.578Z,102833.00
2018-02-04T23:20:38.109Z,102836.93
2018-02-04T23:23:06.765Z,102829.92
2018-02-04T23:25:36.535Z,102833.02
2018-02-04T23:28:05.185Z,102834.31
2018-02-04T23:30:33.599Z,102831.69
2018-02-04T23:33:02.852Z,102842.61
2018-02-04T23:35:31.322Z,102841.32
2018-02-04T23:37:59.724Z,102842.17
2018-02-04T23:40:28.518Z,102838.23
2018-02-04T23:42:57.000Z,102846.99
2018-02-04T23:45:26.573Z,102838.27
2018-02-04T23:47:55.317Z,102836.52
2018-02-04T23:50:24.623Z,102848.77
2018-02-04T23:52:53.916Z,102850.53
2018-02-04T23:55:24.201Z,102847.89
2018-02-04T23:57:53.568Z,102847.02
